Terminal Aerodrome Forecast
Issued by NWS

Home | Current Version | Previous Version | Text Only | Print | Product List | Glossary On
Versions: 1 2 3 4 5 6 7 8 9 10 11 12 13 14 15 16 17 18 19 20 21 22 23 24 25 26 27
876
FTUS46 KOTX 290522
TAFPUW
TAF
KPUW 290522Z 2906/3006 VRB03KT P6SM SCT120 BKN150
     FM291400 22009KT P6SM SCT050 BKN080 BKN150
     FM291900 26011G18KT P6SM VCSH SCT030 BKN060
     FM300300 25009KT P6SM SCT050 BKN070=

USA.gov is the U.S. government's official web portal to all federal, state and local government web resources and services.